sensor_id;sensor_type;location;lat;lon;timestamp;pressure;altitude;pressure_sealevel;temperature;humidity
48926;BME280;39838;59.938;30.642;2023-08-06T00:02:20;100806.78;;;19.93;73.02
48926;BME280;39838;59.938;30.642;2023-08-06T00:04:47;100825.91;;;20.00;73.19
48926;BME280;39838;59.938;30.642;2023-08-06T00:07:14;100822.59;;;19.93;73.24
48926;BME280;39838;59.938;30.642;2023-08-06T00:09:41;100825.06;;;19.98;73.22
48926;BME280;39838;59.938;30.642;2023-08-06T00:12:08;100827.75;;;19.96;73.25
48926;BME280;39838;59.938;30.642;2023-08-06T00:14:37;100821.75;;;19.93;73.18
48926;BME280;39838;59.938;30.642;2023-08-06T00:17:04;100829.69;;;19.91;73.47
48926;BME280;39838;59.938;30.642;2023-08-06T00:19:31;100828.94;;;19.87;73.51
48926;BME280;39838;59.938;30.642;2023-08-06T00:21:59;100830.72;;;19.87;73.72
48926;BME280;39838;59.938;30.642;2023-08-06T00:24:27;100831.63;;;19.86;73.71
48926;BME280;39838;59.938;30.642;2023-08-06T00:26:54;100820.31;;;19.82;73.77
48926;BME280;39838;59.938;30.642;2023-08-06T00:29:21;100822.16;;;19.80;74.05
48926;BME280;39838;59.938;30.642;2023-08-06T00:31:50;100825.63;;;19.81;74.25
48926;BME280;39838;59.938;30.642;2023-08-06T00:34:17;100832.69;;;19.80;74.20
48926;BME280;39838;59.938;30.642;2023-08-06T00:36:44;100830.09;;;19.79;74.45
48926;BME280;39838;59.938;30.642;2023-08-06T00:39:12;100827.50;;;19.77;74.45
48926;BME280;39838;59.938;30.642;2023-08-06T00:41:39;100824.91;;;19.76;74.73
48926;BME280;39838;59.938;30.642;2023-08-06T00:44:07;100824.00;;;19.77;74.94
48926;BME280;39838;59.938;30.642;2023-08-06T00:46:34;100828.34;;;19.78;75.08
48926;BME280;39838;59.938;30.642;2023-08-06T00:49:03;100830.97;;;19.79;75.09
48926;BME280;39838;59.938;30.642;2023-08-06T00:51:32;100814.38;;;19.76;74.91
48926;BME280;39838;59.938;30.642;2023-08-06T00:53:59;100824.72;;;19.82;75.00
48926;BME280;39838;59.938;30.642;2023-08-06T00:56:27;100830.91;;;19.81;75.06
48926;BME280;39838;59.938;30.642;2023-08-06T00:58:55;100827.47;;;19.79;75.25
48926;BME280;39838;59.938;30.642;2023-08-06T01:01:23;100827.41;;;19.80;75.47
48926;BME280;39838;59.938;30.642;2023-08-06T01:03:50;100831.81;;;19.80;75.32
48926;BME280;39838;59.938;30.642;2023-08-06T01:06:23;100824.19;;;19.72;75.39
48926;BME280;39838;59.938;30.642;2023-08-06T01:09:03;100830.38;;;19.70;75.54
48926;BME280;39838;59.938;30.642;2023-08-06T01:11:40;100805.38;;;19.55;75.65
48926;BME280;39838;59.938;30.642;2023-08-06T01:14:16;100820.03;;;19.65;75.75
48926;BME280;39838;59.938;30.642;2023-08-06T01:16:46;100819.16;;;19.65;76.04
48926;BME280;39838;59.938;30.642;2023-08-06T01:19:17;100816.47;;;19.66;76.13
48926;BME280;39838;59.938;30.642;2023-08-06T01:21:46;100817.38;;;19.65;76.06
48926;BME280;39838;59.938;30.642;2023-08-06T01:24:13;100812.09;;;19.65;76.34
48926;BME280;39838;59.938;30.642;2023-08-06T01:26:43;100807.03;;;19.59;76.35
48926;BME280;39838;59.938;30.642;2023-08-06T01:29:16;100802.66;;;19.56;76.40
48926;BME280;39838;59.938;30.642;2023-08-06T01:31:48;100761.22;;;19.35;76.41
48926;BME280;39838;59.938;30.642;2023-08-06T01:34:17;100802.72;;;19.55;76.60
48926;BME280;39838;59.938;30.642;2023-08-06T01:36:50;100791.44;;;19.51;76.89
48926;BME280;39838;59.938;30.642;2023-08-06T01:39:17;100789.59;;;19.53;76.81
48926;BME280;39838;59.938;30.642;2023-08-06T01:41:46;100790.47;;;19.54;76.86
48926;BME280;39838;59.938;30.642;2023-08-06T01:44:14;100790.53;;;19.52;77.00
48926;BME280;39838;59.938;30.642;2023-08-06T01:46:41;100790.59;;;19.49;77.14
48926;BME280;39838;59.938;30.642;2023-08-06T01:49:08;100800.28;;;19.49;77.13
48926;BME280;39838;59.938;30.642;2023-08-06T01:51:35;100793.34;;;19.46;76.99
48926;BME280;39838;59.938;30.642;2023-08-06T01:54:04;100795.19;;;19.44;77.05
48926;BME280;39838;59.938;30.642;2023-08-06T01:56:31;100789.94;;;19.43;77.01
48926;BME280;39838;59.938;30.642;2023-08-06T01:58:58;100786.63;;;19.36;77.60
48926;BME280;39838;59.938;30.642;2023-08-06T02:01:25;100790.13;;;19.36;77.57
48926;BME280;39838;59.938;30.642;2023-08-06T02:03:52;100783.97;;;19.38;77.65
48926;BME280;39838;59.938;30.642;2023-08-06T02:06:20;100780.44;;;19.37;77.62
48926;BME280;39838;59.938;30.642;2023-08-06T02:08:47;100782.22;;;19.38;77.58
48926;BME280;39838;59.938;30.642;2023-08-06T02:11:16;100769.84;;;19.40;77.62
48926;BME280;39838;59.938;30.642;2023-08-06T02:13:44;100777.69;;;19.42;77.36
48926;BME280;39838;59.938;30.642;2023-08-06T02:16:12;100789.91;;;19.44;77.30
48926;BME280;39838;59.938;30.642;2023-08-06T02:18:40;100778.47;;;19.45;77.42
48926;BME280;39838;59.938;30.642;2023-08-06T02:21:25;100773.28;;;19.42;77.52
48926;BME280;39838;59.938;30.642;2023-08-06T02:23:53;100773.22;;;19.44;77.28
48926;BME280;39838;59.938;30.642;2023-08-06T02:26:21;100783.94;;;19.39;77.54
48926;BME280;39838;59.938;30.642;2023-08-06T02:28:48;100788.34;;;19.37;77.65
48926;BME280;39838;59.938;30.642;2023-08-06T02:31:15;100793.75;;;19.34;78.11
48926;BME280;39838;59.938;30.642;2023-08-06T02:33:42;100793.75;;;19.34;78.00
48926;BME280;39838;59.938;30.642;2023-08-06T02:36:10;100796.38;;;19.34;78.23
48926;BME280;39838;59.938;30.642;2023-08-06T02:38:37;100794.59;;;19.34;78.45
48926;BME280;39838;59.938;30.642;2023-08-06T02:41:04;100794.59;;;19.34;78.37
48926;BME280;39838;59.938;30.642;2023-08-06T02:43:33;100798.09;;;19.35;78.35
48926;BME280;39838;59.938;30.642;2023-08-06T02:46:01;100791.09;;;19.34;78.37
48926;BME280;39838;59.938;30.642;2023-08-06T02:48:28;100787.56;;;19.35;78.43
48926;BME280;39838;59.938;30.642;2023-08-06T02:50:57;100787.59;;;19.33;78.79
48926;BME280;39838;59.938;30.642;2023-08-06T02:53:25;100787.56;;;19.35;78.82
48926;BME280;39838;59.938;30.642;2023-08-06T02:55:52;100786.63;;;19.36;78.89
48926;BME280;39838;59.938;30.642;2023-08-06T02:58:20;100791.91;;;19.36;78.77
48926;BME280;39838;59.938;30.642;2023-08-06T03:01:00;100796.47;;;19.31;78.83
48926;BME280;39838;59.938;30.642;2023-08-06T03:03:28;100788.53;;;19.32;79.10
48926;BME280;39838;59.938;30.642;2023-08-06T03:05:56;100789.38;;;19.33;79.10
48926;BME280;39838;59.938;30.642;2023-08-06T03:08:23;100784.91;;;19.35;79.38
48926;BME280;39838;59.938;30.642;2023-08-06T03:10:50;100778.72;;;19.36;79.42
48926;BME280;39838;59.938;30.642;2023-08-06T03:13:18;100780.38;;;19.40;79.38
48926;BME280;39838;59.938;30.642;2023-08-06T03:15:52;100776.88;;;19.40;79.27
48926;BME280;39838;59.938;30.642;2023-08-06T03:18:21;100789.91;;;19.44;79.33
48926;BME280;39838;59.938;30.642;2023-08-06T03:20:49;100785.53;;;19.43;79.34
48926;BME280;39838;59.938;30.642;2023-08-06T03:23:16;100794.34;;;19.42;79.53
48926;BME280;39838;59.938;30.642;2023-08-06T03:25:43;100779.59;;;19.36;79.76
48926;BME280;39838;59.938;30.642;2023-08-06T03:28:11;100787.28;;;19.44;79.76
48926;BME280;39838;59.938;30.642;2023-08-06T03:30:38;100798.56;;;19.48;79.87
48926;BME280;39838;59.938;30.642;2023-08-06T03:33:05;100790.59;;;19.49;79.51
48926;BME280;39838;59.938;30.642;2023-08-06T03:35:34;100790.59;;;19.49;79.55
48926;BME280;39838;59.938;30.642;2023-08-06T03:38:01;100790.53;;;19.52;79.47
48926;BME280;39838;59.938;30.642;2023-08-06T03:40:28;100795.69;;;19.55;79.70
48926;BME280;39838;59.938;30.642;2023-08-06T03:42:55;100785.09;;;19.58;79.26
48926;BME280;39838;59.938;30.642;2023-08-06T03:45:22;100783.25;;;19.60;79.39
48926;BME280;39838;59.938;30.642;2023-08-06T03:47:49;100793.66;;;19.65;79.24
48926;BME280;39838;59.938;30.642;2023-08-06T03:50:17;100797.97;;;19.68;79.18
48926;BME280;39838;59.938;30.642;2023-08-06T03:52:45;100792.56;;;19.71;79.20
48926;BME280;39838;59.938;30.642;2023-08-06T03:55:13;100791.69;;;19.72;79.25
48926;BME280;39838;59.938;30.642;2023-08-06T03:57:40;100788.88;;;19.76;79.02
48926;BME280;39838;59.938;30.642;2023-08-06T04:00:08;100789.72;;;19.78;79.17
48926;BME280;39838;59.938;30.642;2023-08-06T04:02:36;100798.41;;;19.80;79.73
48926;BME280;39838;59.938;30.642;2023-08-06T04:05:03;100802.78;;;19.81;79.63
48926;BME280;39838;59.938;30.642;2023-08-06T04:07:31;100792.22;;;19.81;79.63
48926;BME280;39838;59.938;30.642;2023-08-06T04:10:01;100789.66;;;19.80;79.76
48926;BME280;39838;59.938;30.642;2023-08-06T04:12:32;100789.72;;;19.77;79.58
48926;BME280;39838;59.938;30.642;2023-08-06T04:15:02;100779.25;;;19.75;79.01
48926;BME280;39838;59.938;30.642;2023-08-06T04:17:33;100779.31;;;19.74;79.26
48926;BME280;39838;59.938;30.642;2023-08-06T04:20:01;100779.38;;;19.71;79.24
48926;BME280;39838;59.938;30.642;2023-08-06T04:22:30;100768.09;;;19.67;79.26
48926;BME280;39838;59.938;30.642;2023-08-06T04:24:58;100770.81;;;19.66;79.21
48926;BME280;39838;59.938;30.642;2023-08-06T04:27:25;100749.81;;;19.62;79.56
48926;BME280;39838;59.938;30.642;2023-08-06T04:29:53;100741.03;;;19.62;79.66
48926;BME280;39838;59.938;30.642;2023-08-06T04:32:20;100741.09;;;19.60;79.26
48926;BME280;39838;59.938;30.642;2023-08-06T04:34:47;100740.22;;;19.60;79.10
48926;BME280;39838;59.938;30.642;2023-08-06T04:37:14;100749.97;;;19.56;79.58
48926;BME280;39838;59.938;30.642;2023-08-06T04:39:41;100748.38;;;19.52;80.12
48926;BME280;39838;59.938;30.642;2023-08-06T04:42:10;100743.28;;;19.46;80.20
48926;BME280;39838;59.938;30.642;2023-08-06T04:44:37;100739.19;;;19.38;80.34
48926;BME280;39838;59.938;30.642;2023-08-06T04:47:04;100733.25;;;19.31;80.65
48926;BME280;39838;59.938;30.642;2023-08-06T04:49:32;100726.47;;;19.24;80.83
48926;BME280;39838;59.938;30.642;2023-08-06T04:51:59;100727.34;;;19.23;80.91
48926;BME280;39838;59.938;30.642;2023-08-06T04:54:26;100739.63;;;19.24;81.06
48926;BME280;39838;59.938;30.642;2023-08-06T04:56:53;100719.75;;;19.14;81.14
48926;BME280;39838;59.938;30.642;2023-08-06T04:59:22;100728.06;;;19.28;81.46
48926;BME280;39838;59.938;30.642;2023-08-06T05:01:49;100719.06;;;19.35;81.50
48926;BME280;39838;59.938;30.642;2023-08-06T05:04:16;100721.44;;;19.43;81.03
48926;BME280;39838;59.938;30.642;2023-08-06T05:06:43;100721.25;;;19.49;80.63
48926;BME280;39838;59.938;30.642;2023-08-06T05:09:10;100721.97;;;19.54;80.55
48926;BME280;39838;59.938;30.642;2023-08-06T05:11:38;100721.84;;;19.58;80.28
48926;BME280;39838;59.938;30.642;2023-08-06T05:14:05;100722.66;;;19.60;80.17
48926;BME280;39838;59.938;30.642;2023-08-06T05:16:33;100716.47;;;19.61;80.07
48926;BME280;39838;59.938;30.642;2023-08-06T05:19:00;100719.03;;;19.63;79.80
48926;BME280;39838;59.938;30.642;2023-08-06T05:21:28;100718.09;;;19.66;79.83
48926;BME280;39838;59.938;30.642;2023-08-06T05:23:55;100713.72;;;19.65;79.74
48926;BME280;39838;59.938;30.642;2023-08-06T05:26:22;100718.81;;;19.69;79.64
48926;BME280;39838;59.938;30.642;2023-08-06T05:28:49;100710.78;;;19.74;79.52
48926;BME280;39838;59.938;30.642;2023-08-06T05:31:16;100711.34;;;19.82;79.69
48926;BME280;39838;59.938;30.642;2023-08-06T05:33:45;100709.31;;;19.90;79.50
48926;BME280;39838;59.938;30.642;2023-08-06T05:36:12;100704.75;;;19.95;79.19
48926;BME280;39838;59.938;30.642;2023-08-06T05:38:39;100704.19;;;20.10;78.96
48926;BME280;39838;59.938;30.642;2023-08-06T05:41:06;100701.66;;;20.32;78.27
48926;BME280;39838;59.938;30.642;2023-08-06T05:43:33;100692.03;;;20.55;77.47
48926;BME280;39838;59.938;30.642;2023-08-06T05:46:00;100681.63;;;20.74;76.44
48926;BME280;39838;59.938;30.642;2023-08-06T05:48:27;100683.66;;;20.89;75.99
48926;BME280;39838;59.938;30.642;2023-08-06T05:50:56;100680.41;;;21.04;75.04
48926;BME280;39838;59.938;30.642;2023-08-06T05:53:24;100686.72;;;21.22;74.56
48926;BME280;39838;59.938;30.642;2023-08-06T05:55:51;100680.75;;;21.39;73.57
48926;BME280;39838;59.938;30.642;2023-08-06T05:58:18;100683.81;;;21.50;73.09
48926;BME280;39838;59.938;30.642;2023-08-06T06:00:45;100680.84;;;21.58;72.67
48926;BME280;39838;59.938;30.642;2023-08-06T06:03:13;100688.44;;;21.65;72.50
48926;BME280;39838;59.938;30.642;2023-08-06T06:05:40;100683.03;;;21.68;71.87
48926;BME280;39838;59.938;30.642;2023-08-06T06:08:08;100680.13;;;21.74;71.48
48926;BME280;39838;59.938;30.642;2023-08-06T06:10:36;100683.41;;;21.79;70.98
48926;BME280;39838;59.938;30.642;2023-08-06T06:13:03;100692.88;;;21.85;71.12
48926;BME280;39838;59.938;30.642;2023-08-06T06:15:30;100683.53;;;21.97;70.45
48926;BME280;39838;59.938;30.642;2023-08-06T06:17:57;100696.00;;;22.15;69.61
48926;BME280;39838;59.938;30.642;2023-08-06T06:20:24;100686.00;;;22.41;69.22
48926;BME280;39838;59.938;30.642;2023-08-06T06:22:51;100686.56;;;22.66;68.43
48926;BME280;39838;59.938;30.642;2023-08-06T06:25:20;100694.81;;;22.79;67.77
48926;BME280;39838;59.938;30.642;2023-08-06T06:27:47;100691.22;;;22.80;66.96
48926;BME280;39838;59.938;30.642;2023-08-06T06:30:15;100692.22;;;22.77;67.06
48926;BME280;39838;59.938;30.642;2023-08-06T06:32:42;100680.34;;;22.67;67.60
48926;BME280;39838;59.938;30.642;2023-08-06T06:35:09;100678.41;;;22.52;67.75
48926;BME280;39838;59.938;30.642;2023-08-06T06:37:36;100675.28;;;22.44;68.96
48926;BME280;39838;59.938;30.642;2023-08-06T06:40:05;100677.34;;;22.37;69.07
48926;BME280;39838;59.938;30.642;2023-08-06T06:42:33;100673.00;;;22.36;69.56
48926;BME280;39838;59.938;30.642;2023-08-06T06:45:01;100666.69;;;22.39;69.66
48926;BME280;39838;59.938;30.642;2023-08-06T06:47:30;100660.25;;;22.44;69.35
48926;BME280;39838;59.938;30.642;2023-08-06T06:49:57;100660.66;;;22.54;69.54
48926;BME280;39838;59.938;30.642;2023-08-06T06:52:24;100654.34;;;22.75;69.31
48926;BME280;39838;59.938;30.642;2023-08-06T06:54:51;100643.91;;;22.91;69.07
48926;BME280;39838;59.938;30.642;2023-08-06T06:57:18;100656.50;;;23.05;68.33
48926;BME280;39838;59.938;30.642;2023-08-06T06:59:47;100654.16;;;23.16;67.75
48926;BME280;39838;59.938;30.642;2023-08-06T07:02:14;100653.16;;;23.19;67.87
48926;BME280;39838;59.938;30.642;2023-08-06T07:04:42;100657.66;;;23.16;67.14
48926;BME280;39838;59.938;30.642;2023-08-06T07:07:09;100654.22;;;23.14;67.28
48926;BME280;39838;59.938;30.642;2023-08-06T07:09:36;100656.88;;;23.14;67.36
48926;BME280;39838;59.938;30.642;2023-08-06T07:12:04;100640.97;;;23.14;66.99
48926;BME280;39838;59.938;30.642;2023-08-06T07:14:31;100644.56;;;23.13;67.11
48926;BME280;39838;59.938;30.642;2023-08-06T07:17:00;100646.19;;;23.16;67.12
48926;BME280;39838;59.938;30.642;2023-08-06T07:19:27;100652.00;;;23.24;67.37
48926;BME280;39838;59.938;30.642;2023-08-06T07:21:54;100635.25;;;23.24;67.66
48926;BME280;39838;59.938;30.642;2023-08-06T07:24:22;100651.69;;;23.30;66.59
48926;BME280;39838;59.938;30.642;2023-08-06T07:26:49;100644.09;;;23.23;66.87
48926;BME280;39838;59.938;30.642;2023-08-06T07:29:18;100651.91;;;23.26;66.93
48926;BME280;39838;59.938;30.642;2023-08-06T07:31:47;100641.22;;;23.27;67.27
48926;BME280;39838;59.938;30.642;2023-08-06T07:34:17;100651.22;;;23.39;66.81
48926;BME280;39838;59.938;30.642;2023-08-06T07:36:45;100653.94;;;23.55;66.87
48926;BME280;39838;59.938;30.642;2023-08-06T07:39:13;100650.50;;;23.70;66.34
48926;BME280;39838;59.938;30.642;2023-08-06T07:41:42;100645.09;;;23.89;65.72
48926;BME280;39838;59.938;30.642;2023-08-06T07:44:11;100630.16;;;24.04;65.13
48926;BME280;39838;59.938;30.642;2023-08-06T07:46:38;100636.94;;;24.10;64.85
48926;BME280;39838;59.938;30.642;2023-08-06T07:49:05;100639.66;;;24.08;64.98
48926;BME280;39838;59.938;30.642;2023-08-06T07:51:34;100642.50;;;24.05;65.09
48926;BME280;39838;59.938;30.642;2023-08-06T07:54:01;100661.44;;;24.15;65.31
48926;BME280;39838;59.938;30.642;2023-08-06T07:56:28;100657.41;;;24.23;65.02
48926;BME280;39838;59.938;30.642;2023-08-06T07:58:56;100657.72;;;24.35;64.86
48926;BME280;39838;59.938;30.642;2023-08-06T08:01:23;100659.28;;;24.39;64.63
48926;BME280;39838;59.938;30.642;2023-08-06T08:03:50;100656.38;;;24.43;64.76
48926;BME280;39838;59.938;30.642;2023-08-06T08:06:18;100650.97;;;24.45;64.51
48926;BME280;39838;59.938;30.642;2023-08-06T08:08:46;100655.16;;;24.49;64.43
48926;BME280;39838;59.938;30.642;2023-08-06T08:11:13;100647.72;;;24.56;64.20
48926;BME280;39838;59.938;30.642;2023-08-06T08:13:41;100657.25;;;24.60;64.62
48926;BME280;39838;59.938;30.642;2023-08-06T08:16:08;100657.38;;;24.72;63.74
48926;BME280;39838;59.938;30.642;2023-08-06T08:18:36;100665.28;;;24.74;63.93
48926;BME280;39838;59.938;30.642;2023-08-06T08:21:03;100667.50;;;24.82;63.71
48926;BME280;39838;59.938;30.642;2023-08-06T08:23:30;100659.09;;;24.89;63.44
48926;BME280;39838;59.938;30.642;2023-08-06T08:25:59;100659.50;;;24.97;63.25
48926;BME280;39838;59.938;30.642;2023-08-06T08:28:28;100659.78;;;25.09;63.74
48926;BME280;39838;59.938;30.642;2023-08-06T08:30:55;100661.16;;;25.16;62.86
48926;BME280;39838;59.938;30.642;2023-08-06T08:33:22;100655.56;;;25.20;62.15
48926;BME280;39838;59.938;30.642;2023-08-06T08:35:49;100654.34;;;25.26;61.48
48926;BME280;39838;59.938;30.642;2023-08-06T08:38:16;100647.53;;;25.36;61.81
48926;BME280;39838;59.938;30.642;2023-08-06T08:40:45;100649.56;;;25.47;61.79
48926;BME280;39838;59.938;30.642;2023-08-06T08:43:15;100647.81;;;25.62;61.20
48926;BME280;39838;59.938;30.642;2023-08-06T08:45:42;100648.88;;;25.73;60.86
48926;BME280;39838;59.938;30.642;2023-08-06T08:48:12;100639.53;;;25.66;60.57
48926;BME280;39838;59.938;30.642;2023-08-06T08:50:40;100639.72;;;25.63;60.90
48926;BME280;39838;59.938;30.642;2023-08-06T08:53:08;100641.16;;;25.69;60.41
48926;BME280;39838;59.938;30.642;2023-08-06T08:55:38;100626.81;;;25.71;60.44
48926;BME280;39838;59.938;30.642;2023-08-06T08:58:06;100620.63;;;25.71;60.82
48926;BME280;39838;59.938;30.642;2023-08-06T09:00:34;100624.84;;;25.75;60.83
48926;BME280;39838;59.938;30.642;2023-08-06T09:03:06;100607.31;;;25.71;60.72
48926;BME280;39838;59.938;30.642;2023-08-06T09:05:33;100614.50;;;25.84;60.91
48926;BME280;39838;59.938;30.642;2023-08-06T09:08:03;100615.53;;;25.96;60.21
48926;BME280;39838;59.938;30.642;2023-08-06T09:10:31;100619.81;;;25.99;60.26
48926;BME280;39838;59.938;30.642;2023-08-06T09:12:58;100630.28;;;26.02;60.22
48926;BME280;39838;59.938;30.642;2023-08-06T09:15:27;100627.69;;;26.00;60.04
48926;BME280;39838;59.938;30.642;2023-08-06T09:17:55;100637.41;;;26.01;59.92
48926;BME280;39838;59.938;30.642;2023-08-06T09:20:23;100647.59;;;26.09;59.74
48926;BME280;39838;59.938;30.642;2023-08-06T09:22:52;100647.28;;;26.13;59.69
48926;BME280;39838;59.938;30.642;2023-08-06T09:25:21;100628.28;;;26.05;59.51
48926;BME280;39838;59.938;30.642;2023-08-06T09:27:50;100634.34;;;26.07;60.17
48926;BME280;39838;59.938;30.642;2023-08-06T09:30:29;100639.19;;;26.01;60.10
48926;BME280;39838;59.938;30.642;2023-08-06T09:32:58;100647.59;;;26.09;59.73
48926;BME280;39838;59.938;30.642;2023-08-06T09:35:28;100631.03;;;26.18;59.50
48926;BME280;39838;59.938;30.642;2023-08-06T09:37:55;100623.97;;;26.31;58.68
48926;BME280;39838;59.938;30.642;2023-08-06T09:40:26;100623.34;;;26.42;58.41
48926;BME280;39838;59.938;30.642;2023-08-06T09:42:54;100623.66;;;26.64;58.64
48926;BME280;39838;59.938;30.642;2023-08-06T09:45:22;100628.06;;;26.78;58.68
48926;BME280;39838;59.938;30.642;2023-08-06T09:47:50;100618.19;;;26.93;58.13
48926;BME280;39838;59.938;30.642;2023-08-06T09:50:19;100617.59;;;27.02;57.35
48926;BME280;39838;59.938;30.642;2023-08-06T09:52:47;100616.25;;;27.09;57.65
48926;BME280;39838;59.938;30.642;2023-08-06T09:55:15;100614.03;;;27.16;57.43
48926;BME280;39838;59.938;30.642;2023-08-06T09:57:43;100617.69;;;27.28;56.89
48926;BME280;39838;59.938;30.642;2023-08-06T10:00:11;100615.97;;;27.27;56.53
48926;BME280;39838;59.938;30.642;2023-08-06T10:02:40;100620.31;;;27.15;57.19
48926;BME280;39838;59.938;30.642;2023-08-06T10:05:08;100616.63;;;27.17;56.88
48926;BME280;39838;59.938;30.642;2023-08-06T10:07:37;100611.28;;;27.17;56.00
48926;BME280;39838;59.938;30.642;2023-08-06T10:10:06;100607.44;;;27.34;55.84
48926;BME280;39838;59.938;30.642;2023-08-06T10:12:35;100594.66;;;27.52;55.13
48926;BME280;39838;59.938;30.642;2023-08-06T10:15:10;100599.66;;;27.57;55.00
48926;BME280;39838;59.938;30.642;2023-08-06T10:17:38;100597.44;;;27.63;54.12
48926;BME280;39838;59.938;30.642;2023-08-06T10:20:07;100592.34;;;27.73;54.08
48926;BME280;39838;59.938;30.642;2023-08-06T10:22:36;100600.47;;;27.84;53.34
48926;BME280;39838;59.938;30.642;2023-08-06T10:25:09;100598.41;;;27.88;52.78
48926;BME280;39838;59.938;30.642;2023-08-06T10:27:41;100596.06;;;27.83;53.75
48926;BME280;39838;59.938;30.642;2023-08-06T10:30:27;100595.66;;;27.77;54.38
48926;BME280;39838;59.938;30.642;2023-08-06T10:32:55;100584.22;;;27.74;53.90
48926;BME280;39838;59.938;30.642;2023-08-06T10:35:35;100588.72;;;27.74;54.41
48926;BME280;39838;59.938;30.642;2023-08-06T10:38:08;100593.63;;;27.80;54.27
48926;BME280;39838;59.938;30.642;2023-08-06T10:40:36;100599.16;;;27.90;54.35
48926;BME280;39838;59.938;30.642;2023-08-06T10:43:04;100603.63;;;28.02;54.03
48926;BME280;39838;59.938;30.642;2023-08-06T10:45:37;100600.22;;;28.00;53.64
48926;BME280;39838;59.938;30.642;2023-08-06T10:48:05;100602.03;;;27.99;54.03
48926;BME280;39838;59.938;30.642;2023-08-06T10:50:32;100600.00;;;28.03;54.26
48926;BME280;39838;59.938;30.642;2023-08-06T10:53:04;100591.66;;;28.08;54.66
48926;BME280;39838;59.938;30.642;2023-08-06T10:55:34;100596.44;;;28.15;54.06
48926;BME280;39838;59.938;30.642;2023-08-06T10:58:04;100603.28;;;28.19;53.61
48926;BME280;39838;59.938;30.642;2023-08-06T11:00:31;100597.50;;;28.25;53.80
48926;BME280;39838;59.938;30.642;2023-08-06T11:02:58;100594.84;;;28.25;54.07
48926;BME280;39838;59.938;30.642;2023-08-06T11:05:25;100590.66;;;28.34;53.60
48926;BME280;39838;59.938;30.642;2023-08-06T11:07:53;100584.44;;;28.46;53.29
48926;BME280;39838;59.938;30.642;2023-08-06T11:10:20;100588.53;;;28.63;52.94
48926;BME280;39838;59.938;30.642;2023-08-06T11:12:48;100588.47;;;28.76;53.70
48926;BME280;39838;59.938;30.642;2023-08-06T11:15:15;100589.72;;;28.83;53.27
48926;BME280;39838;59.938;30.642;2023-08-06T11:17:43;100593.75;;;28.89;53.00
48926;BME280;39838;59.938;30.642;2023-08-06T11:20:10;100590.53;;;28.96;53.13
48926;BME280;39838;59.938;30.642;2023-08-06T11:22:37;100594.63;;;29.13;52.68
48926;BME280;39838;59.938;30.642;2023-08-06T11:25:06;100589.66;;;29.31;52.09
48926;BME280;39838;59.938;30.642;2023-08-06T11:27:33;100601.38;;;29.41;51.55
48926;BME280;39838;59.938;30.642;2023-08-06T11:30:02;100599.56;;;29.42;51.08
48926;BME280;39838;59.938;30.642;2023-08-06T11:32:31;100586.38;;;29.38;50.78
48926;BME280;39838;59.938;30.642;2023-08-06T11:34:59;100589.09;;;29.50;50.26
48926;BME280;39838;59.938;30.642;2023-08-06T11:37:36;100587.38;;;29.37;50.88
48926;BME280;39838;59.938;30.642;2023-08-06T11:40:08;100586.34;;;29.16;51.26
48926;BME280;39838;59.938;30.642;2023-08-06T11:42:37;100588.38;;;29.01;51.80
48926;BME280;39838;59.938;30.642;2023-08-06T11:45:06;100593.97;;;28.86;52.33
48926;BME280;39838;59.938;30.642;2023-08-06T11:47:38;100587.16;;;28.81;52.93
48926;BME280;39838;59.938;30.642;2023-08-06T11:50:06;100578.28;;;28.81;53.12
48926;BME280;39838;59.938;30.642;2023-08-06T11:52:33;100583.63;;;28.81;52.29
48926;BME280;39838;59.938;30.642;2023-08-06T11:55:03;100581.41;;;28.75;52.77
48926;BME280;39838;59.938;30.642;2023-08-06T11:57:32;100580.56;;;28.74;52.81
48926;BME280;39838;59.938;30.642;2023-08-06T12:00:06;100576.47;;;28.81;52.82
48926;BME280;39838;59.938;30.642;2023-08-06T12:02:34;100575.47;;;28.95;52.73
48926;BME280;39838;59.938;30.642;2023-08-06T12:05:04;100566.34;;;28.98;52.54
48926;BME280;39838;59.938;30.642;2023-08-06T12:07:32;100571.00;;;29.07;52.59
48926;BME280;39838;59.938;30.642;2023-08-06T12:10:00;100566.50;;;29.07;52.34
48926;BME280;39838;59.938;30.642;2023-08-06T12:12:31;100571.00;;;29.07;53.19
48926;BME280;39838;59.938;30.642;2023-08-06T12:14:58;100572.63;;;29.21;53.02
48926;BME280;39838;59.938;30.642;2023-08-06T12:17:26;100573.47;;;29.32;52.39
48926;BME280;39838;59.938;30.642;2023-08-06T12:19:54;100572.03;;;29.40;51.82
48926;BME280;39838;59.938;30.642;2023-08-06T12:22:21;100567.69;;;29.50;52.23
48926;BME280;39838;59.938;30.642;2023-08-06T12:24:48;100569.69;;;29.70;52.36
48926;BME280;39838;59.938;30.642;2023-08-06T12:27:15;100562.75;;;30.01;52.58
48926;BME280;39838;59.938;30.642;2023-08-06T12:29:43;100571.84;;;30.43;51.39
48926;BME280;39838;59.938;30.642;2023-08-06T12:32:11;100563.41;;;30.91;50.06
48926;BME280;39838;59.938;30.642;2023-08-06T12:34:41;100564.66;;;31.50;49.07
48926;BME280;39838;59.938;30.642;2023-08-06T12:37:09;100561.53;;;32.06;47.64
48926;BME280;39838;59.938;30.642;2023-08-06T12:39:36;100563.09;;;32.58;46.40
48926;BME280;39838;59.938;30.642;2023-08-06T12:42:05;100560.53;;;33.05;45.70
48926;BME280;39838;59.938;30.642;2023-08-06T12:44:32;100567.19;;;33.40;44.97
48926;BME280;39838;59.938;30.642;2023-08-06T12:46:59;100566.25;;;33.68;45.01